createdAt,value
2018-02-23T00:01:51.587Z,5.83
2018-02-23T00:04:18.230Z,7.50
2018-02-23T00:06:46.420Z,6.97
2018-02-23T00:09:14.888Z,6.33
2018-02-23T00:11:41.379Z,6.87
2018-02-23T00:14:07.791Z,7.03
2018-02-23T00:16:34.250Z,6.83
2018-02-23T00:19:00.710Z,7.20
2018-02-23T00:21:27.940Z,6.57
2018-02-23T00:23:55.403Z,6.00
2018-02-23T00:26:21.883Z,6.40
2018-02-23T00:28:49.110Z,6.20
2018-02-23T00:31:16.275Z,6.70
2018-02-23T00:33:43.863Z,6.90
2018-02-23T00:36:10.275Z,6.10
2018-02-23T00:38:37.452Z,6.20
2018-02-23T00:41:04.042Z,5.63
2018-02-23T00:43:30.455Z,6.30
2018-02-23T00:45:56.903Z,5.73
2018-02-23T00:48:23.368Z,6.50
2018-02-23T00:50:49.774Z,6.20
2018-02-23T00:53:16.943Z,6.37
2018-02-23T00:55:43.523Z,6.30
2018-02-23T00:58:09.944Z,6.60
2018-02-23T01:00:36.386Z,6.10
2018-02-23T01:03:02.806Z,5.90
2018-02-23T01:05:29.987Z,6.83
2018-02-23T01:07:59.811Z,5.80
2018-02-23T01:10:26.315Z,6.57
2018-02-23T01:12:52.802Z,7.00
2018-02-23T01:15:19.239Z,7.10
2018-02-23T01:17:46.531Z,5.93
2018-02-23T01:20:12.963Z,7.07
2018-02-23T01:22:39.411Z,6.00
2018-02-23T01:25:05.901Z,5.90
2018-02-23T01:27:32.327Z,7.07
2018-02-23T01:30:04.571Z,6.53
2018-02-23T01:32:31.798Z,5.73
2018-02-23T01:34:58.175Z,7.50
2018-02-23T01:37:25.302Z,6.40
2018-02-23T01:39:51.902Z,6.30
2018-02-23T01:42:18.330Z,6.40
2018-02-23T01:44:45.490Z,7.20
2018-02-23T01:47:13.920Z,6.20
2018-02-23T01:49:40.370Z,6.20
2018-02-23T01:52:06.739Z,6.17
2018-02-23T01:54:33.166Z,6.43
2018-02-23T01:56:59.575Z,6.97
2018-02-23T01:59:26.023Z,6.83
2018-02-23T02:01:52.606Z,6.60
2018-02-23T02:04:19.004Z,6.63
2018-02-23T02:06:46.182Z,7.07
2018-02-23T02:09:12.732Z,7.13
2018-02-23T02:11:39.178Z,7.10
2018-02-23T02:14:05.599Z,5.33
2018-02-23T02:16:32.907Z,8.07
2018-02-23T02:18:59.316Z,6.60
2018-02-23T02:21:25.763Z,6.30
2018-02-23T02:23:52.343Z,6.27
2018-02-23T02:26:18.788Z,5.90
2018-02-23T02:28:45.237Z,6.47
2018-02-23T02:31:12.697Z,6.13
2018-02-23T02:33:39.152Z,7.10
2018-02-23T02:36:05.588Z,6.90
2018-02-23T02:38:32.076Z,6.70
2018-02-23T02:40:58.587Z,7.10
2018-02-23T02:43:26.038Z,7.30
2018-02-23T02:45:52.503Z,6.97
2018-02-23T02:48:18.928Z,7.10
2018-02-23T02:50:46.378Z,7.30
2018-02-23T02:53:12.860Z,6.47
2018-02-23T02:55:39.272Z,7.07
2018-02-23T02:58:05.708Z,6.77
2018-02-23T03:00:37.819Z,6.40
2018-02-23T03:03:04.224Z,6.90
2018-02-23T03:05:31.403Z,6.03
2018-02-23T03:07:57.877Z,7.23
2018-02-23T03:10:24.295Z,6.93
2018-02-23T03:12:50.664Z,7.00
2018-02-23T03:15:17.111Z,7.30
2018-02-23T03:17:43.524Z,6.90
2018-02-23T03:20:09.958Z,6.47
2018-02-23T03:22:37.172Z,7.10
2018-02-23T03:25:03.545Z,7.00
2018-02-23T03:27:30.034Z,7.30
2018-02-23T03:29:56.491Z,7.00
2018-02-23T03:32:22.902Z,6.50
2018-02-23T03:34:50.072Z,8.20
2018-02-23T03:37:16.522Z,7.07
2018-02-23T03:39:43.775Z,7.37
2018-02-23T03:42:10.948Z,7.20
2018-02-23T03:44:37.782Z,8.10
2018-02-23T03:47:04.957Z,7.10
2018-02-23T03:49:32.158Z,6.23
2018-02-23T03:51:58.555Z,7.00
2018-02-23T03:54:26.751Z,6.67
2018-02-23T03:56:53.920Z,7.20
2018-02-23T03:59:20.403Z,7.03
2018-02-23T04:01:46.811Z,6.50
2018-02-23T04:04:13.260Z,7.17
2018-02-23T04:06:40.093Z,6.40
2018-02-23T04:09:07.259Z,7.37
2018-02-23T04:11:34.431Z,7.20
2018-02-23T04:14:01.728Z,7.30
2018-02-23T04:16:28.355Z,7.40
2018-02-23T04:18:54.787Z,6.73
2018-02-23T04:21:21.975Z,6.87
2018-02-23T04:23:48.443Z,7.70
2018-02-23T04:26:14.832Z,7.27
2018-02-23T04:28:42.187Z,7.77
2018-02-23T04:31:08.655Z,7.97
2018-02-23T04:33:35.818Z,6.50
2018-02-23T04:36:03.015Z,7.93
2018-02-23T04:38:29.532Z,7.30
2018-02-23T04:40:56.175Z,6.80
2018-02-23T04:43:23.703Z,8.10
2018-02-23T04:45:50.815Z,8.00
2018-02-23T04:48:17.255Z,8.23
2018-02-23T04:50:43.732Z,8.63
2018-02-23T04:53:10.152Z,8.00
2018-02-23T04:55:36.578Z,7.77
2018-02-23T04:58:04.014Z,7.73
2018-02-23T05:00:30.511Z,8.80
2018-02-23T05:02:57.000Z,8.87
2018-02-23T05:05:23.699Z,7.73
2018-02-23T05:07:50.175Z,8.80
2018-02-23T05:10:16.580Z,7.83
2018-02-23T05:12:43.867Z,9.00
2018-02-23T05:15:10.263Z,8.87
2018-02-23T05:17:36.658Z,8.40
2018-02-23T05:20:03.148Z,8.70
2018-02-23T05:22:29.693Z,8.63
2018-02-23T05:24:56.220Z,8.53
2018-02-23T05:27:22.643Z,8.60
2018-02-23T05:29:49.794Z,9.30
2018-02-23T05:32:16.231Z,8.47
2018-02-23T05:34:42.802Z,9.33
2018-02-23T05:37:09.233Z,9.03
2018-02-23T05:39:35.679Z,7.73
2018-02-23T05:42:02.148Z,8.27
2018-02-23T05:44:28.572Z,7.90
2018-02-23T05:46:55.027Z,7.47
2018-02-23T05:49:21.591Z,8.63
2018-02-23T05:51:47.969Z,9.23
2018-02-23T05:54:14.438Z,9.13
2018-02-23T05:56:41.636Z,8.67
2018-02-23T05:59:08.035Z,8.27
2018-02-23T06:01:35.148Z,8.50
2018-02-23T06:04:02.751Z,8.33
2018-02-23T06:06:29.222Z,9.40
2018-02-23T06:08:56.391Z,9.33
2018-02-23T06:11:22.871Z,8.77
2018-02-23T06:13:49.276Z,8.50
2018-02-23T06:16:21.832Z,8.87
2018-02-23T06:18:54.564Z,8.20
2018-02-23T06:21:21.004Z,8.03
2018-02-23T06:23:48.480Z,8.75
2018-02-23T06:26:14.882Z,8.60
2018-02-23T06:28:41.354Z,9.20
2018-02-23T06:31:08.538Z,8.68
2018-02-23T06:33:35.025Z,7.57
2018-02-23T06:36:01.431Z,8.90
2018-02-23T06:38:27.867Z,9.50
2018-02-23T06:40:54.463Z,7.62
2018-02-23T06:43:20.868Z,8.77
2018-02-23T06:45:47.304Z,9.23
2018-02-23T06:48:14.507Z,9.50
2018-02-23T06:50:40.944Z,9.97
2018-02-23T06:53:07.358Z,10.50
2018-02-23T06:55:33.892Z,9.27
2018-02-23T06:58:01.066Z,9.40
2018-02-23T07:00:27.519Z,10.20
2018-02-23T07:02:53.995Z,9.20
2018-02-23T07:05:20.407Z,8.53
2018-02-23T07:07:46.858Z,9.20
2018-02-23T07:10:13.354Z,8.90
2018-02-23T07:12:39.827Z,8.60
2018-02-23T07:15:07.011Z,9.97
2018-02-23T07:17:33.684Z,10.53
2018-02-23T07:20:00.109Z,9.43
2018-02-23T07:22:26.479Z,9.77
2018-02-23T07:24:52.938Z,9.70
2018-02-23T07:27:19.335Z,10.63
2018-02-23T07:29:45.775Z,9.93
2018-02-23T07:32:13.004Z,10.00
2018-02-23T07:34:40.211Z,9.63
2018-02-23T07:37:06.619Z,10.90
2018-02-23T07:39:33.139Z,9.70
2018-02-23T07:42:00.358Z,9.80
2018-02-23T07:44:26.732Z,10.83
2018-02-23T07:46:53.143Z,12.03
2018-02-23T07:49:19.634Z,12.00
2018-02-23T07:51:46.032Z,11.90
2018-02-23T07:54:13.231Z,9.93
2018-02-23T07:56:39.699Z,10.97
2018-02-23T07:59:06.119Z,10.70
2018-02-23T08:01:32.672Z,10.53
2018-02-23T08:03:59.079Z,11.60
2018-02-23T08:06:26.179Z,11.30
2018-02-23T08:08:53.147Z,11.53
2018-02-23T08:11:19.539Z,10.17
2018-02-23T08:13:46.010Z,12.73
2018-02-23T08:16:12.468Z,11.70
2018-02-23T08:18:38.893Z,11.50
2018-02-23T08:21:05.334Z,10.40
2018-02-23T08:23:31.803Z,11.23
2018-02-23T08:25:58.203Z,12.27
2018-02-23T08:28:25.389Z,11.60
2018-02-23T08:30:51.959Z,13.00
2018-02-23T08:33:19.100Z,12.17
2018-02-23T08:35:45.526Z,13.00
2018-02-23T08:38:12.806Z,12.63
2018-02-23T08:40:39.247Z,13.70
2018-02-23T08:43:05.892Z,12.60
2018-02-23T08:45:32.577Z,12.43
2018-02-23T08:47:59.000Z,12.53
2018-02-23T08:50:25.427Z,13.67
2018-02-23T08:52:52.918Z,12.83
2018-02-23T08:55:19.352Z,14.30
2018-02-23T08:57:45.782Z,13.57
2018-02-23T09:00:17.935Z,12.20
2018-02-23T09:02:44.406Z,13.67
2018-02-23T09:05:11.623Z,14.47
2018-02-23T09:07:38.064Z,12.90
2018-02-23T09:10:04.467Z,12.67
2018-02-23T09:12:30.915Z,14.07
2018-02-23T09:14:57.415Z,11.50
2018-02-23T09:17:23.806Z,12.10
2018-02-23T09:19:50.255Z,13.37
2018-02-23T09:22:16.659Z,14.53
2018-02-23T09:24:43.138Z,14.07
2018-02-23T09:27:10.298Z,10.23
2018-02-23T09:29:37.604Z,12.10
2018-02-23T09:32:04.086Z,12.20
2018-02-23T09:34:37.091Z,14.03
2018-02-23T09:37:03.475Z,15.07
2018-02-23T09:39:29.900Z,12.30
2018-02-23T09:41:57.861Z,14.03
2018-02-23T09:44:24.111Z,13.77
2018-02-23T09:46:51.275Z,14.53
2018-02-23T09:49:18.482Z,13.83
2018-02-23T09:51:44.847Z,13.60
2018-02-23T09:54:11.237Z,14.67
2018-02-23T09:56:38.445Z,13.27
2018-02-23T09:59:04.859Z,13.20
2018-02-23T10:01:31.291Z,14.43
2018-02-23T10:03:57.975Z,15.20
2018-02-23T10:06:24.342Z,14.60
2018-02-23T10:08:50.717Z,14.60
2018-02-23T10:11:17.924Z,14.50
2018-02-23T10:13:44.323Z,16.83
2018-02-23T10:16:11.483Z,14.13
2018-02-23T10:18:39.023Z,15.13
2018-02-23T10:21:05.402Z,13.33
2018-02-23T10:23:32.617Z,15.10
2018-02-23T10:25:59.053Z,15.47
2018-02-23T10:28:25.447Z,15.67
2018-02-23T10:30:52.628Z,15.30
2018-02-23T10:33:19.559Z,16.90
2018-02-23T10:35:46.794Z,15.53
2018-02-23T10:38:13.207Z,13.70
2018-02-23T10:40:39.703Z,15.43
2018-02-23T10:43:06.222Z,16.70
2018-02-23T10:45:32.787Z,16.90
2018-02-23T10:47:59.398Z,15.20
2018-02-23T10:50:25.831Z,16.27
2018-02-23T10:52:52.273Z,16.70
2018-02-23T10:55:19.053Z,17.50
2018-02-23T10:57:45.545Z,15.50
2018-02-23T11:00:11.947Z,15.30
2018-02-23T11:02:38.423Z,13.53
2018-02-23T11:05:04.848Z,16.10
2018-02-23T11:07:31.300Z,15.37
2018-02-23T11:09:57.772Z,15.80
2018-02-23T11:12:24.255Z,14.90
2018-02-23T11:14:50.682Z,15.87
2018-02-23T11:17:17.915Z,15.60
2018-02-23T11:19:44.462Z,15.63
2018-02-23T11:22:10.843Z,14.57
2018-02-23T11:24:38.144Z,16.07
2018-02-23T11:27:04.547Z,16.30
2018-02-23T11:29:31.724Z,13.80
2018-02-23T11:31:58.495Z,15.23
2018-02-23T11:34:24.911Z,15.83
2018-02-23T11:36:51.305Z,15.00
2018-02-23T11:39:17.837Z,15.37
2018-02-23T11:41:44.202Z,15.00
2018-02-23T11:44:10.615Z,13.60
2018-02-23T11:46:37.311Z,15.50
2018-02-23T11:49:03.795Z,15.10
2018-02-23T11:51:30.171Z,15.30
2018-02-23T11:53:56.635Z,14.73
2018-02-23T11:56:23.064Z,15.70
2018-02-23T11:58:49.454Z,15.00
2018-02-23T12:01:16.699Z,15.63
2018-02-23T12:03:43.071Z,17.63
2018-02-23T12:06:10.244Z,15.77
2018-02-23T12:08:36.722Z,16.33
2018-02-23T12:11:03.127Z,15.80
2018-02-23T12:13:30.246Z,16.33
2018-02-23T12:15:56.764Z,15.63
2018-02-23T12:18:23.442Z,15.83
2018-02-23T12:20:50.644Z,16.63
2018-02-23T12:23:18.055Z,15.80
2018-02-23T12:25:44.482Z,14.70
2018-02-23T12:28:11.129Z,13.80
2018-02-23T12:30:37.604Z,14.53
2018-02-23T12:33:04.003Z,13.97
2018-02-23T12:35:30.466Z,16.20
2018-02-23T12:37:57.164Z,15.70
2018-02-23T12:40:23.891Z,14.50
2018-02-23T12:42:50.316Z,14.53
2018-02-23T12:45:16.791Z,15.13
2018-02-23T12:47:43.293Z,13.97
2018-02-23T12:50:09.727Z,15.53
2018-02-23T12:52:36.968Z,14.60
2018-02-23T12:55:03.452Z,15.33
2018-02-23T12:57:30.943Z,14.87
2018-02-23T12:59:57.494Z,15.83
2018-02-23T13:02:23.922Z,15.20
2018-02-23T13:04:50.355Z,15.20
2018-02-23T13:07:16.779Z,15.00
2018-02-23T13:09:43.924Z,15.63
2018-02-23T13:12:10.404Z,14.53
2018-02-23T13:14:43.095Z,16.53
2018-02-23T13:17:09.545Z,15.70
2018-02-23T13:19:36.034Z,14.73
2018-02-23T13:22:02.497Z,17.07
2018-02-23T13:24:28.986Z,15.43
2018-02-23T13:27:01.544Z,14.67
2018-02-23T13:29:28.209Z,15.57
2018-02-23T13:31:54.699Z,16.57
2018-02-23T13:34:21.264Z,15.47
2018-02-23T13:36:47.660Z,17.30
2018-02-23T13:39:14.766Z,15.33
2018-02-23T13:41:41.250Z,15.53
2018-02-23T13:44:08.418Z,16.73
2018-02-23T13:46:35.588Z,14.33
2018-02-23T13:49:02.191Z,16.77
2018-02-23T13:51:28.595Z,16.27
2018-02-23T13:54:01.078Z,15.30
2018-02-23T13:56:27.587Z,16.40
2018-02-23T13:58:54.064Z,17.50
2018-02-23T14:01:20.500Z,16.60
2018-02-23T14:03:46.946Z,15.63
2018-02-23T14:06:14.140Z,14.87
2018-02-23T14:08:40.563Z,12.57
2018-02-23T14:11:07.049Z,15.87
2018-02-23T14:13:33.451Z,16.90
2018-02-23T14:15:59.920Z,14.50
2018-02-23T14:18:26.335Z,15.83
2018-02-23T14:20:52.793Z,14.80
2018-02-23T14:23:19.248Z,15.90
2018-02-23T14:25:45.711Z,15.00
2018-02-23T14:28:12.126Z,13.63
2018-02-23T14:30:38.628Z,14.33
2018-02-23T14:33:05.089Z,12.97
2018-02-23T14:35:31.559Z,14.53
2018-02-23T14:37:58.008Z,14.13
2018-02-23T14:40:24.510Z,14.80
2018-02-23T14:42:50.898Z,15.23
2018-02-23T14:45:17.335Z,15.00
2018-02-23T14:47:44.730Z,16.30
2018-02-23T14:50:24.128Z,14.47
2018-02-23T14:52:51.090Z,14.83
2018-02-23T14:55:18.291Z,15.43
2018-02-23T14:57:44.691Z,13.67
2018-02-23T15:00:11.292Z,13.20
2018-02-23T15:02:37.716Z,14.60
2018-02-23T15:05:04.279Z,21.33
2018-02-23T15:07:30.760Z,14.60
2018-02-23T15:09:57.158Z,14.50
2018-02-23T15:12:23.534Z,12.17
2018-02-23T15:14:50.327Z,15.00
2018-02-23T15:17:17.518Z,15.27
2018-02-23T15:19:43.988Z,14.90
2018-02-23T15:22:10.787Z,14.50
2018-02-23T15:24:39.010Z,12.83
2018-02-23T15:27:05.399Z,13.90
2018-02-23T15:29:32.148Z,13.30
2018-02-23T15:32:10.847Z,15.07
2018-02-23T15:34:39.091Z,14.13
2018-02-23T15:37:12.531Z,12.77
2018-02-23T15:39:39.018Z,12.10
2018-02-23T15:42:08.807Z,13.23
2018-02-23T15:44:35.256Z,11.83
2018-02-23T15:47:01.848Z,13.10
2018-02-23T15:49:34.476Z,12.80
2018-02-23T15:52:02.915Z,12.87
2018-02-23T15:54:29.348Z,12.63
2018-02-23T15:56:56.825Z,13.30
2018-02-23T15:59:25.118Z,11.47
2018-02-23T16:01:51.558Z,12.90
2018-02-23T16:04:18.005Z,13.57
2018-02-23T16:06:44.507Z,12.77
2018-02-23T16:09:11.008Z,12.90
2018-02-23T16:11:37.667Z,12.63
2018-02-23T16:14:04.476Z,12.33
2018-02-23T16:16:30.983Z,12.60
2018-02-23T16:18:57.485Z,12.07
2018-02-23T16:21:23.947Z,12.90
2018-02-23T16:23:50.949Z,12.20
2018-02-23T16:26:17.443Z,11.70
2018-02-23T16:28:44.044Z,12.37
2018-02-23T16:31:10.695Z,10.83
2018-02-23T16:33:37.312Z,10.97
2018-02-23T16:36:03.910Z,13.40
2018-02-23T16:38:30.359Z,12.00
2018-02-23T16:40:56.817Z,12.53
2018-02-23T16:43:23.689Z,13.47
2018-02-23T16:45:50.150Z,12.03
2018-02-23T16:48:16.649Z,12.90
2018-02-23T16:50:43.195Z,14.13
2018-02-23T16:53:09.707Z,12.97
2018-02-23T16:55:36.277Z,12.70
2018-02-23T16:58:03.060Z,12.70
2018-02-23T17:00:29.452Z,13.13
2018-02-23T17:02:56.857Z,13.63
2018-02-23T17:05:23.308Z,13.10
2018-02-23T17:07:49.736Z,13.40
2018-02-23T17:10:16.194Z,13.50
2018-02-23T17:12:42.751Z,12.33
2018-02-23T17:15:09.179Z,13.50
2018-02-23T17:17:35.637Z,14.00
2018-02-23T17:20:02.135Z,13.10
2018-02-23T17:22:28.633Z,14.27
2018-02-23T17:24:55.032Z,14.10
2018-02-23T17:27:21.680Z,13.63
2018-02-23T17:29:48.339Z,14.17
2018-02-23T17:32:14.808Z,11.90
2018-02-23T17:34:41.375Z,13.00
2018-02-23T17:37:07.764Z,13.27
2018-02-23T17:39:34.265Z,12.63
2018-02-23T17:42:02.719Z,11.77
2018-02-23T17:44:29.310Z,12.60
2018-02-23T17:46:56.349Z,13.27
2018-02-23T17:49:22.960Z,13.77
2018-02-23T17:51:49.461Z,12.33
2018-02-23T17:54:15.991Z,12.70
2018-02-23T17:56:42.489Z,12.77
2018-02-23T17:59:08.887Z,12.63
2018-02-23T18:01:35.289Z,12.00
2018-02-23T18:04:01.931Z,12.30
2018-02-23T18:06:28.429Z,11.80
2018-02-23T18:08:54.903Z,11.43
2018-02-23T18:11:21.315Z,12.47
2018-02-23T18:13:47.753Z,12.80
2018-02-23T18:16:14.194Z,10.73
2018-02-23T18:18:40.688Z,12.07
2018-02-23T18:21:07.191Z,12.27
2018-02-23T18:23:33.567Z,13.57
2018-02-23T18:26:00.003Z,11.70
2018-02-23T18:28:26.360Z,12.50
2018-02-23T18:30:52.902Z,12.23
2018-02-23T18:33:19.351Z,13.17
2018-02-23T18:35:45.767Z,12.17
2018-02-23T18:38:12.247Z,12.63
2018-02-23T18:40:39.511Z,12.00
2018-02-23T18:43:05.922Z,12.60
2018-02-23T18:45:32.351Z,13.60
2018-02-23T18:47:59.578Z,13.00
2018-02-23T18:50:25.964Z,12.30
2018-02-23T18:52:52.349Z,11.43
2018-02-23T18:55:18.795Z,12.33
2018-02-23T18:57:45.203Z,11.90
2018-02-23T19:00:11.655Z,11.57
2018-02-23T19:02:38.480Z,11.90
2018-02-23T19:05:05.687Z,10.80
2018-02-23T19:07:32.118Z,11.73
2018-02-23T19:09:58.711Z,11.60
2018-02-23T19:12:25.127Z,10.93
2018-02-23T19:14:51.551Z,13.97
2018-02-23T19:17:18.026Z,11.47
2018-02-23T19:19:44.500Z,11.57
2018-02-23T19:22:11.743Z,11.53
2018-02-23T19:24:38.192Z,12.17
2018-02-23T19:27:04.624Z,13.50
2018-02-23T19:29:33.390Z,12.07
2018-02-23T19:32:01.128Z,11.70
2018-02-23T19:34:27.615Z,12.33
2018-02-23T19:36:55.089Z,11.30
2018-02-23T19:39:21.518Z,11.40
2018-02-23T19:41:48.789Z,10.73
2018-02-23T19:44:15.254Z,13.57
2018-02-23T19:46:42.099Z,11.60
2018-02-23T19:49:09.078Z,11.70
2018-02-23T19:51:36.342Z,13.33
2018-02-23T19:54:02.847Z,11.23
2018-02-23T19:56:30.074Z,12.07
2018-02-23T19:58:56.607Z,10.90
2018-02-23T20:01:23.188Z,9.97
2018-02-23T20:03:50.412Z,12.20
2018-02-23T20:06:18.363Z,12.60
2018-02-23T20:08:45.611Z,11.50
2018-02-23T20:11:12.111Z,12.93
2018-02-23T20:13:39.588Z,11.00
2018-02-23T20:16:06.992Z,12.60
2018-02-23T20:18:34.358Z,11.83
2018-02-23T20:21:02.414Z,11.70
2018-02-23T20:23:29.780Z,13.50
2018-02-23T20:25:56.185Z,12.73
2018-02-23T20:28:22.632Z,12.80
2018-02-23T20:30:49.082Z,13.60
2018-02-23T20:33:15.517Z,12.03
2018-02-23T20:35:41.947Z,13.80
2018-02-23T20:38:09.190Z,12.40
2018-02-23T20:40:35.667Z,11.37
2018-02-23T20:43:02.115Z,12.70
2018-02-23T20:45:28.665Z,13.03
2018-02-23T20:47:55.210Z,12.90
2018-02-23T20:50:21.648Z,13.97
2018-02-23T20:52:51.311Z,12.83
2018-02-23T20:55:18.565Z,13.03
2018-02-23T20:57:45.740Z,12.03
2018-02-23T21:00:12.192Z,14.13
2018-02-23T21:02:39.650Z,11.20
2018-02-23T21:05:06.031Z,12.57
2018-02-23T21:07:33.255Z,12.43
2018-02-23T21:09:59.775Z,12.57
2018-02-23T21:12:26.210Z,12.10
2018-02-23T21:14:52.775Z,12.63
2018-02-23T21:17:19.199Z,13.13
2018-02-23T21:19:45.905Z,12.43
2018-02-23T21:22:12.695Z,13.30
2018-02-23T21:24:39.187Z,13.47
2018-02-23T21:27:05.594Z,14.27
2018-02-23T21:29:32.953Z,12.67
2018-02-23T21:31:59.407Z,13.10
2018-02-23T21:34:25.888Z,14.13
2018-02-23T21:36:52.429Z,13.63
2018-02-23T21:39:18.803Z,14.77
2018-02-23T21:41:52.514Z,14.87
2018-02-23T21:44:18.915Z,14.37
2018-02-23T21:46:45.363Z,13.70
2018-02-23T21:49:12.115Z,14.63
2018-02-23T21:51:38.549Z,15.27
2018-02-23T21:54:05.024Z,14.70
2018-02-23T21:56:31.798Z,14.07
2018-02-23T21:58:58.199Z,17.03
2018-02-23T22:01:24.660Z,15.87
2018-02-23T22:03:51.107Z,16.07
2018-02-23T22:06:17.519Z,15.30
2018-02-23T22:08:43.974Z,14.53
2018-02-23T22:11:10.384Z,15.30
2018-02-23T22:13:36.863Z,15.60
2018-02-23T22:16:03.340Z,14.53
2018-02-23T22:18:29.815Z,14.43
2018-02-23T22:20:56.599Z,14.50
2018-02-23T22:23:23.083Z,15.63
2018-02-23T22:25:49.527Z,11.97
2018-02-23T22:28:15.895Z,17.30
2018-02-23T22:30:42.275Z,15.80
2018-02-23T22:33:09.567Z,16.47
2018-02-23T22:35:35.972Z,17.00
2018-02-23T22:38:02.484Z,17.50
2018-02-23T22:40:28.923Z,16.10
2018-02-23T22:42:55.365Z,15.97
2018-02-23T22:45:21.780Z,17.20
2018-02-23T22:47:48.287Z,14.70
2018-02-23T22:50:14.770Z,17.70
2018-02-23T22:52:41.211Z,16.43
2018-02-23T22:55:08.663Z,15.97
2018-02-23T22:57:35.847Z,15.10
2018-02-23T23:00:02.335Z,17.37
2018-02-23T23:02:29.955Z,16.80
2018-02-23T23:04:56.412Z,15.87
2018-02-23T23:07:23.610Z,17.10
2018-02-23T23:09:50.072Z,16.53
2018-02-23T23:12:16.470Z,16.03
2018-02-23T23:14:42.911Z,15.13
2018-02-23T23:17:09.400Z,14.67
2018-02-23T23:19:35.791Z,14.63
2018-02-23T23:22:02.909Z,14.17
2018-02-23T23:24:29.334Z,14.23
2018-02-23T23:26:55.827Z,15.60
2018-02-23T23:29:23.062Z,15.70
2018-02-23T23:31:49.510Z,16.40
2018-02-23T23:34:15.892Z,15.20
2018-02-23T23:36:43.168Z,16.13
2018-02-23T23:39:09.695Z,16.43
2018-02-23T23:41:36.084Z,15.33
2018-02-23T23:44:02.511Z,15.57
2018-02-23T23:46:28.987Z,11.90
2018-02-23T23:48:55.387Z,15.33
2018-02-23T23:51:22.551Z,15.23
2018-02-23T23:53:49.040Z,15.43
2018-02-23T23:56:15.445Z,17.27
2018-02-23T23:58:41.905Z,13.70
